createdAt,value
2023-05-17T00:02:22.783Z,24.20
2023-05-17T00:04:50.518Z,23.50
2023-05-17T00:07:18.157Z,28.75
2023-05-17T00:09:46.086Z,15.25
2023-05-17T00:12:13.746Z,19.00
2023-05-17T00:14:41.374Z,20.25
2023-05-17T00:17:10.930Z,34.50
2023-05-17T00:19:38.690Z,21.25
2023-05-17T00:22:06.238Z,18.00
2023-05-17T00:24:33.987Z,82.75
2023-05-17T00:27:01.634Z,29.00
2023-05-17T00:29:29.163Z,23.25
2023-05-17T00:31:56.923Z,29.25
2023-05-17T00:34:24.596Z,38.50
2023-05-17T00:36:52.159Z,43.67
2023-05-17T00:39:19.740Z,56.25
2023-05-17T00:41:47.287Z,41.33
2023-05-17T00:44:14.945Z,44.50
2023-05-17T00:46:43.128Z,60.00
2023-05-17T00:49:11.065Z,45.00
2023-05-17T00:51:39.500Z,32.60
2023-05-17T00:54:07.549Z,47.75
2023-05-17T00:56:35.342Z,33.00
2023-05-17T00:59:06.341Z,40.25
2023-05-17T01:01:35.894Z,28.67
2023-05-17T01:04:03.784Z,84.75
2023-05-17T01:06:31.517Z,63.75
2023-05-17T01:08:59.426Z,57.33
2023-05-17T01:11:51.588Z,58.75
2023-05-17T01:14:25.002Z,35.00
2023-05-17T01:16:57.962Z,40.50
2023-05-17T01:19:54.174Z,30.50
2023-05-17T01:22:39.583Z,59.33
2023-05-17T01:25:26.516Z,53.33
2023-05-17T01:27:58.919Z,46.00
2023-05-17T01:30:28.572Z,42.50
2023-05-17T01:33:01.284Z,59.25
2023-05-17T01:35:29.508Z,62.50
2023-05-17T01:37:57.244Z,53.00
2023-05-17T01:40:25.370Z,55.00
2023-05-17T01:43:02.788Z,37.75
2023-05-17T01:45:47.586Z,51.33
2023-05-17T01:48:18.244Z,38.25
2023-05-17T01:50:53.124Z,170.00
2023-05-17T01:53:33.803Z,26.75
2023-05-17T01:56:27.385Z,91.33
2023-05-17T01:58:59.674Z,53.00
2023-05-17T02:01:30.930Z,40.00
2023-05-17T02:03:58.782Z,49.67
2023-05-17T02:06:26.380Z,76.75
2023-05-17T02:08:54.335Z,39.50
2023-05-17T02:11:21.939Z,50.25
2023-05-17T02:13:49.529Z,611.00
2023-05-17T02:16:17.226Z,36.50
2023-05-17T02:18:45.195Z,49.00
2023-05-17T02:21:13.732Z,48.33
2023-05-17T02:23:41.457Z,58.00
2023-05-17T02:26:08.878Z,45.00
2023-05-17T02:28:36.708Z,63.20
2023-05-17T02:31:04.270Z,64.50
2023-05-17T02:33:32.107Z,64.00
2023-05-17T02:35:59.654Z,49.60
2023-05-17T02:38:27.516Z,42.40
2023-05-17T02:40:55.069Z,73.50
2023-05-17T02:43:22.680Z,51.40
2023-05-17T02:45:50.143Z,36.00
2023-05-17T02:48:17.750Z,35.75
2023-05-17T02:50:45.492Z,45.67
2023-05-17T02:53:13.021Z,77.00
2023-05-17T02:55:40.578Z,53.25
2023-05-17T02:58:08.615Z,15.33
2023-05-17T03:00:36.521Z,46.80
2023-05-17T03:03:04.575Z,60.00
2023-05-17T03:05:34.275Z,44.67
2023-05-17T03:08:02.005Z,63.50
2023-05-17T03:10:29.736Z,47.75
2023-05-17T03:12:57.632Z,47.50
2023-05-17T03:15:30.233Z,56.60
2023-05-17T03:17:58.129Z,47.00
2023-05-17T03:20:26.901Z,53.00
2023-05-17T03:22:54.279Z,29.00
2023-05-17T03:25:21.952Z,53.25
2023-05-17T03:27:50.143Z,52.67
2023-05-17T03:30:17.849Z,44.00
2023-05-17T03:32:46.842Z,40.60
2023-05-17T03:35:15.050Z,51.67
2023-05-17T03:37:46.230Z,39.50
2023-05-17T03:40:14.007Z,50.40
2023-05-17T03:42:42.194Z,42.75
2023-05-17T03:45:11.355Z,60.67
2023-05-17T03:47:39.071Z,35.50
2023-05-17T03:50:08.109Z,37.20
2023-05-17T03:52:36.293Z,37.00
2023-05-17T03:55:04.398Z,63.33
2023-05-17T03:57:33.054Z,42.33
2023-05-17T04:00:00.837Z,50.50
2023-05-17T04:02:28.497Z,57.00
2023-05-17T04:04:57.523Z,19.75
2023-05-17T04:07:25.219Z,58.25
2023-05-17T04:09:53.708Z,59.67
2023-05-17T04:12:21.390Z,57.25
2023-05-17T04:14:49.595Z,49.33
2023-05-17T04:17:17.504Z,54.25
2023-05-17T04:19:47.225Z,47.25
2023-05-17T04:22:15.167Z,40.33
2023-05-17T04:24:43.405Z,41.25
2023-05-17T04:27:11.219Z,63.75
2023-05-17T04:29:39.168Z,57.33
2023-05-17T04:32:07.475Z,82.50
2023-05-17T04:34:35.127Z,48.80
2023-05-17T04:37:04.154Z,36.20
2023-05-17T04:39:33.797Z,57.00
2023-05-17T04:42:01.327Z,68.50
2023-05-17T04:44:29.248Z,54.20
2023-05-17T04:46:57.202Z,20.00
2023-05-17T04:49:25.527Z,27.00
2023-05-17T04:51:54.529Z,30.50
2023-05-17T04:54:22.131Z,19.75
2023-05-17T04:56:51.026Z,137.33
2023-05-17T04:59:32.424Z,45.67
2023-05-17T05:02:00.185Z,24.00
2023-05-17T05:04:27.837Z,39.80
2023-05-17T05:06:55.916Z,46.00
2023-05-17T05:09:24.225Z,131.25
2023-05-17T05:11:52.035Z,35.75
2023-05-17T05:14:19.629Z,43.00
2023-05-17T05:16:47.564Z,49.33
2023-05-17T05:19:15.462Z,37.33
2023-05-17T05:21:46.669Z,82.75
2023-05-17T05:24:14.884Z,37.60
2023-05-17T05:26:43.136Z,85.00
2023-05-17T05:29:11.082Z,139.00
2023-05-17T05:31:39.251Z,159.33
2023-05-17T05:34:08.858Z,108.25
2023-05-17T05:36:36.444Z,5.00
2023-05-17T05:39:04.826Z,0.00
2023-05-17T05:41:33.485Z,0.00
2023-05-17T05:44:01.392Z,0.00
2023-05-17T05:46:29.344Z,0.00
2023-05-17T05:48:57.562Z,0.00
2023-05-17T05:51:25.572Z,0.00
2023-05-17T05:53:53.182Z,0.00
2023-05-17T05:56:21.354Z,0.00
2023-05-17T05:58:49.108Z,0.00
2023-05-17T06:01:17.344Z,0.00
2023-05-17T06:03:45.492Z,0.00
2023-05-17T06:06:13.974Z,0.00
2023-05-17T06:08:42.489Z,0.00
2023-05-17T06:11:10.406Z,0.00
2023-05-17T06:13:37.959Z,0.00
2023-05-17T06:16:06.676Z,0.00
2023-05-17T06:18:34.551Z,0.00
2023-05-17T06:21:02.617Z,0.00
2023-05-17T06:23:30.474Z,0.00
2023-05-17T06:25:58.245Z,0.00
2023-05-17T06:28:26.694Z,0.00
2023-05-17T06:30:54.540Z,0.00
2023-05-17T06:33:22.304Z,0.00
2023-05-17T06:35:57.012Z,0.00
2023-05-17T06:38:25.798Z,0.00
2023-05-17T06:40:55.028Z,0.00
2023-05-17T06:43:23.331Z,0.00
2023-05-17T06:45:51.641Z,0.00
2023-05-17T06:48:19.559Z,0.00
2023-05-17T06:50:49.956Z,0.00
2023-05-17T06:53:17.681Z,0.00
2023-05-17T06:55:45.630Z,0.00
2023-05-17T06:58:13.204Z,0.00
2023-05-17T07:00:40.843Z,0.00
2023-05-17T07:03:08.730Z,0.00
2023-05-17T07:05:37.368Z,0.00
2023-05-17T07:08:05.376Z,0.00
2023-05-17T07:10:35.329Z,0.00
2023-05-17T07:13:03.183Z,0.00
2023-05-17T07:15:31.264Z,0.00
2023-05-17T07:17:59.866Z,0.00
2023-05-17T07:20:28.178Z,0.00
2023-05-17T07:22:56.651Z,0.00
2023-05-17T07:25:24.474Z,0.00
2023-05-17T07:27:52.436Z,0.00
2023-05-17T07:30:20.377Z,0.00
2023-05-17T07:32:48.294Z,0.00
2023-05-17T07:35:17.478Z,0.00
2023-05-17T07:37:46.821Z,0.00
2023-05-17T07:40:15.083Z,0.00
2023-05-17T07:42:42.765Z,0.00
2023-05-17T07:45:11.321Z,0.00
2023-05-17T07:47:38.960Z,0.00
2023-05-17T07:50:07.137Z,0.00
2023-05-17T07:52:34.835Z,0.00
2023-05-17T07:55:04.286Z,0.00
2023-05-17T07:57:31.793Z,0.00
2023-05-17T07:59:59.376Z,0.00
2023-05-17T08:02:27.147Z,0.00
2023-05-17T08:04:54.718Z,0.00
2023-05-17T08:07:22.390Z,0.00
2023-05-17T08:09:49.799Z,0.00
2023-05-17T08:12:17.192Z,0.00
2023-05-17T08:14:44.783Z,0.00
2023-05-17T08:17:12.073Z,0.00
2023-05-17T08:19:40.262Z,0.00
2023-05-17T08:22:08.214Z,0.00
2023-05-17T08:24:36.222Z,0.00
2023-05-17T08:27:03.690Z,0.00
2023-05-17T08:29:31.185Z,0.00
2023-05-17T08:31:58.529Z,0.00
2023-05-17T08:34:26.542Z,0.00
2023-05-17T08:36:54.164Z,0.00
2023-05-17T08:39:21.960Z,0.00
2023-05-17T08:41:49.641Z,0.00
2023-05-17T08:44:18.514Z,0.00
2023-05-17T08:46:54.084Z,0.00
2023-05-17T08:49:28.256Z,0.00
2023-05-17T08:51:58.112Z,0.00
2023-05-17T08:54:26.694Z,0.00
2023-05-17T08:57:01.087Z,0.00
2023-05-17T08:59:34.137Z,0.00
2023-05-17T09:02:02.666Z,0.00
2023-05-17T09:04:33.892Z,0.00
2023-05-17T09:07:01.725Z,0.00
2023-05-17T09:09:29.884Z,0.00
2023-05-17T09:11:57.767Z,0.00
2023-05-17T09:14:25.486Z,0.00
2023-05-17T09:17:00.460Z,0.00
2023-05-17T09:19:28.934Z,0.00
2023-05-17T09:21:58.314Z,0.00
2023-05-17T09:24:31.136Z,0.00
2023-05-17T09:27:04.005Z,0.00
2023-05-17T09:29:33.084Z,0.00
2023-05-17T09:32:21.413Z,0.00
2023-05-17T09:34:49.802Z,0.00
2023-05-17T09:37:19.084Z,0.00
2023-05-17T09:39:48.483Z,0.00
2023-05-17T09:42:17.297Z,0.00
2023-05-17T09:45:00.283Z,0.00
2023-05-17T09:47:30.002Z,0.00
2023-05-17T09:50:00.963Z,0.00
2023-05-17T09:52:32.377Z,0.00
2023-05-17T09:55:01.290Z,0.00
2023-05-17T09:57:37.497Z,0.00
2023-05-17T10:00:10.179Z,0.00
2023-05-17T10:02:39.018Z,0.00
2023-05-17T10:05:11.711Z,0.00
2023-05-17T10:07:41.592Z,0.00
2023-05-17T10:10:10.488Z,0.00
2023-05-17T10:12:40.334Z,0.00
2023-05-17T10:15:11.882Z,0.00
2023-05-17T10:17:43.953Z,0.00
2023-05-17T10:20:15.932Z,0.00
2023-05-17T10:22:43.760Z,0.00
2023-05-17T10:25:11.899Z,0.00
2023-05-17T10:27:39.723Z,0.00
2023-05-17T10:30:09.228Z,0.00
2023-05-17T10:32:37.285Z,0.00
2023-05-17T10:35:11.281Z,0.00
2023-05-17T10:37:41.164Z,0.00
2023-05-17T10:40:13.929Z,0.00
2023-05-17T10:42:51.179Z,0.00
2023-05-17T10:45:22.527Z,0.00
2023-05-17T10:47:52.972Z,0.00
2023-05-17T10:50:25.170Z,0.00
2023-05-17T10:52:56.170Z,0.00
2023-05-17T10:55:39.104Z,0.00
2023-05-17T10:58:28.530Z,0.00
2023-05-17T11:00:57.076Z,0.00
2023-05-17T11:03:32.007Z,0.00
2023-05-17T11:06:25.637Z,0.00
2023-05-17T11:09:18.948Z,0.00
2023-05-17T11:12:05.704Z,0.00
2023-05-17T11:14:46.070Z,0.00
2023-05-17T11:17:18.702Z,0.00
2023-05-17T11:20:17.091Z,0.00
2023-05-17T11:22:50.929Z,0.00
2023-05-17T11:25:20.105Z,0.00
2023-05-17T11:27:49.405Z,0.00
2023-05-17T11:30:21.124Z,0.00
2023-05-17T11:32:51.762Z,0.00
2023-05-17T11:35:25.179Z,0.00
2023-05-17T11:38:21.891Z,0.00
2023-05-17T11:40:53.685Z,0.00
2023-05-17T11:43:31.478Z,0.00
2023-05-17T11:46:04.351Z,0.00
2023-05-17T11:48:32.431Z,0.00
2023-05-17T11:51:02.177Z,0.00
2023-05-17T11:53:32.159Z,0.00
2023-05-17T11:56:05.056Z,0.00
2023-05-17T11:58:33.079Z,0.00
2023-05-17T12:01:00.881Z,0.00
2023-05-17T12:03:29.952Z,0.00
2023-05-17T12:06:18.506Z,0.00
2023-05-17T12:08:47.365Z,0.00
2023-05-17T12:11:19.128Z,0.00
2023-05-17T12:13:49.318Z,0.00
2023-05-17T12:16:21.462Z,0.00
2023-05-17T12:18:52.079Z,0.00
2023-05-17T12:21:21.705Z,0.00
2023-05-17T12:23:52.812Z,0.00
2023-05-17T12:26:22.472Z,0.00
2023-05-17T12:29:02.562Z,0.00
2023-05-17T12:31:36.882Z,0.00
2023-05-17T12:34:07.482Z,0.00
2023-05-17T12:36:37.530Z,0.00
2023-05-17T12:39:09.486Z,0.00
2023-05-17T12:41:39.191Z,0.00
2023-05-17T12:46:41.111Z,0.00
2023-05-17T12:49:10.412Z,0.00
2023-05-17T12:51:50.757Z,0.00
2023-05-17T12:54:24.685Z,0.00
2023-05-17T12:56:52.882Z,0.00
2023-05-17T12:59:21.306Z,0.00
2023-05-17T13:01:56.201Z,0.00
2023-05-17T13:04:34.620Z,0.00
2023-05-17T13:07:04.407Z,0.00
2023-05-17T13:09:33.725Z,0.00
2023-05-17T13:12:05.835Z,0.00
2023-05-17T13:14:55.224Z,0.00
2023-05-17T13:17:27.496Z,0.00
2023-05-17T13:19:58.407Z,0.00
2023-05-17T13:22:26.770Z,0.00
2023-05-17T13:24:55.737Z,0.00
2023-05-17T13:27:23.658Z,0.00
2023-05-17T13:29:51.356Z,0.00
2023-05-17T13:32:19.714Z,0.00
2023-05-17T13:34:47.313Z,0.00
2023-05-17T13:37:15.066Z,0.00
2023-05-17T13:39:42.928Z,0.00
2023-05-17T13:42:11.567Z,0.00
2023-05-17T13:44:39.832Z,0.00
2023-05-17T13:47:08.883Z,0.00
2023-05-17T13:49:37.632Z,0.00
2023-05-17T13:52:09.271Z,0.00
2023-05-17T13:54:38.426Z,0.00
2023-05-17T13:57:07.571Z,0.00
2023-05-17T13:59:35.353Z,0.00
2023-05-17T14:02:04.713Z,0.00
2023-05-17T14:04:33.703Z,0.00
2023-05-17T14:07:02.449Z,0.00
2023-05-17T14:09:34.542Z,0.00
2023-05-17T14:12:02.691Z,0.00
2023-05-17T14:14:30.840Z,0.00
2023-05-17T14:16:58.959Z,0.00
2023-05-17T14:19:26.742Z,0.00
2023-05-17T14:21:54.816Z,0.00
2023-05-17T14:24:22.373Z,0.00
2023-05-17T14:26:50.022Z,0.00
2023-05-17T14:29:17.554Z,0.00
2023-05-17T14:31:46.569Z,1.75
2023-05-17T14:34:14.284Z,0.00
2023-05-17T14:36:41.908Z,0.00
2023-05-17T14:39:10.377Z,0.00
2023-05-17T14:41:39.482Z,0.00
2023-05-17T14:44:06.915Z,0.00
2023-05-17T14:46:34.833Z,0.00
2023-05-17T14:49:02.464Z,0.00
2023-05-17T14:51:30.216Z,0.00
2023-05-17T14:53:58.653Z,0.00
2023-05-17T14:56:26.374Z,0.00
2023-05-17T14:58:53.901Z,0.00
2023-05-17T15:01:21.579Z,0.00
2023-05-17T15:03:49.223Z,0.00
2023-05-17T15:06:17.469Z,0.00
2023-05-17T15:08:45.302Z,0.00
2023-05-17T15:11:12.984Z,0.00
2023-05-17T15:13:40.480Z,0.00
2023-05-17T15:16:08.897Z,0.00
2023-05-17T15:18:38.091Z,0.00
2023-05-17T15:21:05.956Z,0.00
2023-05-17T15:23:33.688Z,0.00
2023-05-17T15:26:01.390Z,0.00
2023-05-17T15:28:29.267Z,0.00
2023-05-17T15:31:02.361Z,0.00
2023-05-17T15:33:31.236Z,0.00
2023-05-17T15:35:59.009Z,0.00
2023-05-17T15:38:26.688Z,0.00
2023-05-17T15:41:04.110Z,0.00
2023-05-17T15:43:33.888Z,0.00
2023-05-17T15:46:01.818Z,0.00
2023-05-17T15:48:29.874Z,0.00
2023-05-17T15:50:57.971Z,0.00
2023-05-17T15:53:26.447Z,0.00
2023-05-17T15:55:53.842Z,0.00
2023-05-17T15:58:22.916Z,0.00
2023-05-17T16:00:50.853Z,0.00
2023-05-17T16:03:18.254Z,0.00
2023-05-17T16:05:45.836Z,0.00
2023-05-17T16:08:13.477Z,0.00
2023-05-17T16:10:40.929Z,0.00
2023-05-17T16:13:08.577Z,0.00
2023-05-17T16:15:35.988Z,0.00
2023-05-17T16:18:03.565Z,0.00
2023-05-17T16:20:31.357Z,0.00
2023-05-17T16:22:58.801Z,0.00
2023-05-17T16:25:26.350Z,0.00
2023-05-17T16:27:54.197Z,0.00
2023-05-17T16:30:21.918Z,0.00
2023-05-17T16:32:50.334Z,0.00
2023-05-17T16:35:20.654Z,0.00
2023-05-17T16:37:50.118Z,0.00
2023-05-17T16:40:17.641Z,0.00
2023-05-17T16:42:45.234Z,0.00
2023-05-17T16:45:12.898Z,0.00
2023-05-17T16:47:40.551Z,0.00
2023-05-17T16:50:09.387Z,0.00
2023-05-17T16:52:37.019Z,0.00
2023-05-17T16:55:04.538Z,0.00
2023-05-17T16:57:32.658Z,0.00
2023-05-17T17:00:01.147Z,0.00
2023-05-17T17:02:29.212Z,0.00
2023-05-17T17:04:57.083Z,0.00
2023-05-17T17:07:24.809Z,0.00
2023-05-17T17:09:52.597Z,0.00
2023-05-17T17:12:24.020Z,0.00
2023-05-17T17:14:53.303Z,0.00
2023-05-17T17:17:20.998Z,0.00
2023-05-17T17:19:48.886Z,0.00
2023-05-17T17:22:17.205Z,0.00
2023-05-17T17:24:44.965Z,0.00
2023-05-17T17:27:12.908Z,0.00
2023-05-17T17:29:40.567Z,0.00
2023-05-17T17:32:08.542Z,0.00
2023-05-17T17:34:36.403Z,0.00
2023-05-17T17:37:04.206Z,0.00
2023-05-17T17:39:31.689Z,0.00
2023-05-17T17:41:59.153Z,0.00
2023-05-17T17:44:26.677Z,0.00
2023-05-17T17:46:54.107Z,0.00
2023-05-17T17:49:21.681Z,0.00
2023-05-17T17:51:49.467Z,0.00
2023-05-17T17:54:17.138Z,0.00
2023-05-17T17:56:45.566Z,0.00
2023-05-17T17:59:13.488Z,0.00
2023-05-17T18:01:41.112Z,0.00
2023-05-17T18:04:09.830Z,0.00
2023-05-17T18:06:37.525Z,0.00
2023-05-17T18:09:07.813Z,0.00
2023-05-17T18:11:35.547Z,0.00
2023-05-17T18:14:03.185Z,0.00
2023-05-17T18:16:30.886Z,0.00
2023-05-17T18:18:58.619Z,0.00
2023-05-17T18:21:26.294Z,0.00
2023-05-17T18:23:53.818Z,0.00
2023-05-17T18:26:21.638Z,0.00
2023-05-17T18:28:49.132Z,0.00
2023-05-17T18:31:16.670Z,0.00
2023-05-17T18:33:44.638Z,0.00
2023-05-17T18:36:12.036Z,0.00
2023-05-17T18:38:39.659Z,0.00
2023-05-17T18:41:07.303Z,0.00
2023-05-17T18:43:34.767Z,0.00
2023-05-17T18:46:02.292Z,0.00
2023-05-17T18:48:29.736Z,0.00
2023-05-17T18:50:57.772Z,0.00
2023-05-17T18:53:25.435Z,0.00
2023-05-17T18:55:53.008Z,0.00
2023-05-17T18:58:20.805Z,0.00
2023-05-17T19:00:48.783Z,0.00
2023-05-17T19:03:16.546Z,0.00
2023-05-17T19:05:43.864Z,0.00
2023-05-17T19:08:11.570Z,0.00
2023-05-17T19:10:39.248Z,0.00
2023-05-17T19:13:09.293Z,0.00
2023-05-17T19:15:36.664Z,0.00
2023-05-17T19:18:04.276Z,0.00
2023-05-17T19:20:32.008Z,0.00
2023-05-17T19:23:00.976Z,0.00
2023-05-17T19:25:28.957Z,0.00
2023-05-17T19:27:56.441Z,0.00
2023-05-17T19:30:23.966Z,0.00
2023-05-17T19:32:51.512Z,0.00
2023-05-17T19:35:19.349Z,0.00
2023-05-17T19:37:46.706Z,0.00
2023-05-17T19:40:15.218Z,0.00
2023-05-17T19:42:42.641Z,0.00
2023-05-17T19:45:11.219Z,0.00
2023-05-17T19:47:38.767Z,0.00
2023-05-17T19:50:06.767Z,0.00
2023-05-17T19:52:34.252Z,0.00
2023-05-17T19:55:02.184Z,0.00
2023-05-17T19:57:29.856Z,0.00
2023-05-17T19:59:57.585Z,0.00
2023-05-17T20:02:25.368Z,0.00
2023-05-17T20:04:53.244Z,0.00
2023-05-17T20:07:26.048Z,1.80
2023-05-17T20:09:54.085Z,1.20
2023-05-17T20:12:22.046Z,26.60
2023-05-17T20:14:49.855Z,69.40
2023-05-17T20:17:17.380Z,72.40
2023-05-17T20:19:44.981Z,93.00
2023-05-17T20:22:13.019Z,127.50
2023-05-17T20:24:40.880Z,128.50
2023-05-17T20:27:08.563Z,132.00
2023-05-17T20:29:36.365Z,177.67
2023-05-17T20:32:04.128Z,162.75
2023-05-17T20:34:32.401Z,169.75
2023-05-17T20:37:01.459Z,174.20
2023-05-17T20:39:29.885Z,183.50
2023-05-17T20:41:58.595Z,179.25
2023-05-17T20:44:26.278Z,199.75
2023-05-17T20:46:56.162Z,201.40
2023-05-17T20:49:23.953Z,190.50
2023-05-17T20:51:51.903Z,177.50
2023-05-17T20:54:19.650Z,208.50
2023-05-17T20:56:48.144Z,210.50
2023-05-17T20:59:16.005Z,210.25
2023-05-17T21:01:43.449Z,203.75
2023-05-17T21:04:11.450Z,177.00
2023-05-17T21:06:39.204Z,102.25
2023-05-17T21:09:07.417Z,110.25
2023-05-17T21:11:35.162Z,65.50
2023-05-17T21:14:03.089Z,80.75
2023-05-17T21:16:31.081Z,60.50
2023-05-17T21:18:59.165Z,71.00
2023-05-17T21:21:26.871Z,72.50
2023-05-17T21:23:54.545Z,62.50
2023-05-17T21:26:23.487Z,55.50
2023-05-17T21:28:51.233Z,61.67
2023-05-17T21:31:19.189Z,45.75
2023-05-17T21:33:47.362Z,56.67
2023-05-17T21:36:14.834Z,55.00
2023-05-17T21:38:42.315Z,43.50
2023-05-17T21:41:09.922Z,51.40
2023-05-17T21:43:37.454Z,46.60
2023-05-17T21:46:04.879Z,53.33
2023-05-17T21:48:32.232Z,39.00
2023-05-17T21:50:59.846Z,49.25
2023-05-17T21:53:27.491Z,52.50
2023-05-17T21:56:02.203Z,55.00
2023-05-17T21:58:32.277Z,52.80
2023-05-17T22:01:00.438Z,53.67
2023-05-17T22:03:28.143Z,64.00
2023-05-17T22:05:55.795Z,63.50
2023-05-17T22:08:23.500Z,57.40
2023-05-17T22:10:51.188Z,65.00
2023-05-17T22:13:19.463Z,67.25
2023-05-17T22:15:47.196Z,69.00
2023-05-17T22:18:15.020Z,68.00
2023-05-17T22:20:42.799Z,71.20
2023-05-17T22:23:10.400Z,75.50
2023-05-17T22:25:38.288Z,65.25
2023-05-17T22:28:06.275Z,69.40
2023-05-17T22:30:34.152Z,78.20
2023-05-17T22:33:03.587Z,91.00
2023-05-17T22:35:31.398Z,91.40
2023-05-17T22:37:59.241Z,97.40
2023-05-17T22:40:26.864Z,95.00
2023-05-17T22:42:54.784Z,95.75
2023-05-17T22:45:22.897Z,98.40
2023-05-17T22:47:50.982Z,96.20
2023-05-17T22:50:19.550Z,90.60
2023-05-17T22:52:47.267Z,87.40
2023-05-17T22:55:15.125Z,79.25
2023-05-17T22:57:42.804Z,97.40
2023-05-17T23:00:11.797Z,81.80
2023-05-17T23:02:39.971Z,82.25
2023-05-17T23:05:07.850Z,83.75
2023-05-17T23:07:38.908Z,69.00
2023-05-17T23:10:10.904Z,83.25
2023-05-17T23:12:38.962Z,70.60
2023-05-17T23:15:07.288Z,60.50
2023-05-17T23:17:36.727Z,75.80
2023-05-17T23:20:10.481Z,58.00
2023-05-17T23:22:39.267Z,64.00
2023-05-17T23:25:07.649Z,71.33
2023-05-17T23:27:35.683Z,59.60
2023-05-17T23:30:04.927Z,60.80
2023-05-17T23:32:35.858Z,46.75
2023-05-17T23:35:04.108Z,38.25
2023-05-17T23:37:33.246Z,50.25
2023-05-17T23:40:00.968Z,38.00
2023-05-17T23:42:32.144Z,32.25
2023-05-17T23:45:00.926Z,44.00
2023-05-17T23:47:29.079Z,42.75
2023-05-17T23:49:57.338Z,26.60
2023-05-17T23:52:25.202Z,34.00
2023-05-17T23:54:57.597Z,14.75
2023-05-17T23:57:25.701Z,44.80
2023-05-17T23:59:53.505Z,25.80
